Itaueira, Brazil
Current Conditions -  °F | °C
As of 9:00 AM on Wednesday 26 Nov 2014 (Local Time) from SBTE Reporting Station
Few Clouds Few Clouds  
Wind Chill: 88°   Ceiling: Unl
Heat Index: 93°   Visibility: 6mi
Dew Point: 70°   Wind: 8mph
Humidity: 55%   Direction: 70°ENE
Pressure: 29.85"   Gusts: NA
Location:  7.6°S, 43.03°W
Report Text: SBTE 261200Z 07007KT 9999 FEW030 31/21 Q1011
Loading
Personal Weather Stations






























Interactive Weather Map New forecast layout! Learn more

10-Day Weather Forecast

Advertisements
Track Severe Weather on mobile